Ana Sayfa
METAR-TAF:

METAR-TAF

Havaalanları :

Corsicana Municipal Airport (C. David Campbell Field)

Corsicana, Teksas, Amerika Birleşik Devletleri

Enlem: 32-01-52N, Boylam: 096-23-56W, yükseklik: 136 m

Güncel hava durumu gözlemi

Rapor saat 15:53 UTC de 18 dakika önce yapıldı.
Rüzgar güneydan 9 kt
Sıcaklık 31°C
Nem 63%
Basınç 1015 hPa
Görüş mesafesi: 16.1 km
Açık gökyüzü

METAR: KCRS 251553Z AUTO 19009KT 10SM CLR 31/23 A2998 RMK AO2 SLP144 T03110228

Saat: 11:11 (16:11 UTC)


TAF: eksik

4.000'den fazla havaalanı için hava durumu gözlemleri ve tahminleri (METAR ve TAF raporları).

Kullanılabilir istasyonlar harita üzerinde sarı ve kırmızı noktalarla gösterilir.

İstasyonun adını görmek için fareyi noktanın üzerinde gezdirin.

Sonrasında hava gözlem ve tahminlerini görmek için tıklayın.

Haritayı değiştirmek için: yaklaştırmak için siyah artı işaretli yeşil düğmeye ve uzaklaştırmak için de eksi işaretli düğmeye hızla tıklayın; bitişik haritalar için yeşil okları kullanın.


METAR-TAF: